Time;durP1;ratioP1;P1;durP2;ratioP2;P2;SDS_P1;SDS_P2;PMS_P1;PMS_P2;Temp;Humidity;BMP_temperature;BMP_pressure;BME280_temperature;BME280_humidity;BME280_pressure;Samples;Min_cycle;Max_cycle;Signal;HPM_P1;HPM_P2
2023/09/26 00:02:58;;;;;;;4.15;2.05;;;20.30;80.60;;;;;;10788571;33;20034;-71
2023/09/26 00:09:01;;;;;;;4.72;2.03;;;20.30;80.60;;;;;;10784988;33;20028;-70
2023/09/26 00:15:04;;;;;;;4.43;2.20;;;20.30;80.40;;;;;;10787756;33;20082;-70
2023/09/26 00:21:16;;;;;;;2.55;1.90;;;20.20;80.30;;;;;;10788040;33;20020;-70
2023/09/26 00:27:18;;;;;;;3.97;2.78;;;20.20;80.20;;;;;;10787789;33;20016;-70
2023/09/26 00:33:20;;;;;;;3.33;2.03;;;20.10;80.30;;;;;;10787664;33;20342;-71
2023/09/26 00:39:22;;;;;;;2.70;1.73;;;20.20;80.30;;;;;;10787637;33;20047;-71
2023/09/26 00:45:25;;;;;;;2.28;1.35;;;20.20;80.10;;;;;;10787431;33;20043;-71
2023/09/26 00:51:27;;;;;;;2.20;1.73;;;20.20;80.20;;;;;;10786319;33;20059;-70
2023/09/26 00:57:35;;;;;;;5.75;1.75;;;20.20;80.10;;;;;;10787103;33;20024;-70
2023/09/26 01:03:38;;;;;;;2.00;1.23;;;20.00;80.10;;;;;;10786123;33;20051;-70
2023/09/26 01:09:40;;;;;;;4.28;2.35;;;19.80;80.30;;;;;;10786861;33;20050;-70
2023/09/26 01:15:43;;;;;;;2.10;1.52;;;19.90;80.70;;;;;;10786019;33;20401;-71
2023/09/26 01:21:45;;;;;;;3.25;2.08;;;19.90;81.00;;;;;;10786589;33;20025;-70
2023/09/26 01:27:48;;;;;;;3.08;1.92;;;20.00;81.00;;;;;;10786498;33;20020;-70
2023/09/26 01:33:50;;;;;;;1.75;1.35;;;19.90;81.10;;;;;;10786228;33;20020;-70
2023/09/26 01:39:52;;;;;;;3.03;1.60;;;19.80;81.10;;;;;;10782860;33;20016;-70
2023/09/26 01:45:55;;;;;;;4.30;1.12;;;19.70;81.10;;;;;;10792389;33;20051;-70
2023/09/26 01:51:58;;;;;;;3.60;2.15;;;19.70;81.10;;;;;;10788340;33;20015;-71
2023/09/26 01:58:00;;;;;;;3.95;1.58;;;19.80;81.30;;;;;;10791786;33;20408;-71
2023/09/26 02:04:02;;;;;;;2.05;1.33;;;19.80;81.40;;;;;;10791833;33;20421;-71
2023/09/26 02:10:05;;;;;;;2.53;1.48;;;19.80;81.40;;;;;;10791572;33;20074;-70
2023/09/26 02:16:13;;;;;;;2.08;1.40;;;19.70;81.40;;;;;;10791502;33;20395;-70
2023/09/26 02:22:35;;;;;;;2.67;2.03;;;19.60;81.60;;;;;;10788082;33;20256;-70
2023/09/26 02:28:38;;;;;;;2.70;1.90;;;19.50;81.50;;;;;;10788965;33;20020;-70
2023/09/26 02:34:41;;;;;;;4.47;2.45;;;19.50;81.60;;;;;;10778457;32;20354;-71
2023/09/26 02:40:44;;;;;;;3.70;2.03;;;19.60;81.40;;;;;;10790881;33;20009;-70
2023/09/26 02:46:46;;;;;;;2.15;1.33;;;19.50;81.30;;;;;;10786673;32;20020;-70
2023/09/26 02:52:48;;;;;;;4.90;2.08;;;19.50;81.40;;;;;;10752975;33;20020;-71
2023/09/26 02:58:50;;;;;;;10.63;1.75;;;19.50;81.50;;;;;;10753731;33;20033;-70
2023/09/26 03:04:54;;;;;;;3.33;1.90;;;19.40;81.90;;;;;;10753724;33;20052;-70
2023/09/26 03:11:00;;;;;;;2.08;1.25;;;19.30;81.70;;;;;;10752001;33;20040;-70
2023/09/26 03:17:05;;;;;;;2.00;1.50;;;19.20;81.80;;;;;;10753349;33;20021;-70
2023/09/26 03:23:08;;;;;;;2.12;1.80;;;19.30;81.80;;;;;;10753749;33;20021;-70
2023/09/26 03:29:10;;;;;;;3.30;2.50;;;19.30;81.60;;;;;;10765502;33;20086;-70
2023/09/26 03:35:12;;;;;;;2.85;1.70;;;19.30;81.60;;;;;;10753398;33;20386;-70
2023/09/26 03:41:15;;;;;;;2.78;2.08;;;19.30;81.70;;;;;;10752628;33;20012;-70
2023/09/26 03:47:17;;;;;;;3.25;1.73;;;19.20;81.60;;;;;;10759266;33;20440;-70
2023/09/26 03:53:19;;;;;;;2.62;1.62;;;19.20;81.70;;;;;;10787542;33;20028;-70
2023/09/26 03:59:21;;;;;;;1.92;1.45;;;19.30;81.60;;;;;;10789886;33;20374;-70
2023/09/26 04:05:23;;;;;;;3.37;1.77;;;19.20;81.60;;;;;;10788853;33;20378;-70
2023/09/26 04:11:25;;;;;;;2.58;2.05;;;19.20;81.60;;;;;;10772852;32;20433;-70
2023/09/26 04:17:29;;;;;;;3.30;2.33;;;19.20;81.60;;;;;;10789377;33;20017;-70
2023/09/26 04:23:31;;;;;;;3.03;2.00;;;19.10;81.70;;;;;;10788040;33;20024;-70
2023/09/26 04:29:34;;;;;;;1.60;1.05;;;19.00;81.80;;;;;;10787035;33;20043;-70
2023/09/26 04:35:36;;;;;;;3.50;1.65;;;19.00;81.80;;;;;;10788862;33;20020;-70
2023/09/26 04:41:38;;;;;;;2.65;1.62;;;18.80;81.90;;;;;;10787843;33;20013;-70
2023/09/26 04:47:41;;;;;;;5.18;2.05;;;18.80;81.90;;;;;;10787041;33;20028;-70
2023/09/26 04:53:43;;;;;;;2.92;1.92;;;18.80;81.90;;;;;;10787287;33;20042;-70
2023/09/26 04:59:45;;;;;;;1.65;1.30;;;18.80;81.80;;;;;;10787157;33;20020;-70
2023/09/26 05:05:47;;;;;;;2.22;1.60;;;18.80;81.90;;;;;;10787133;33;20063;-70
2023/09/26 05:11:49;;;;;;;3.33;1.70;;;18.80;81.90;;;;;;10787092;33;20047;-70
2023/09/26 05:17:54;;;;;;;4.00;2.00;;;18.80;81.90;;;;;;10791265;33;20020;-70
2023/09/26 05:24:04;;;;;;;2.30;1.62;;;18.80;81.90;;;;;;10793567;33;20016;-70
2023/09/26 05:30:13;;;;;;;1.65;1.40;;;18.80;81.90;;;;;;10792830;33;20017;-70
2023/09/26 05:36:17;;;;;;;1.85;1.37;;;18.70;81.90;;;;;;10793409;33;20350;-70
2023/09/26 05:42:19;;;;;;;3.53;2.00;;;18.70;82.00;;;;;;10792651;33;20020;-70
2023/09/26 05:48:22;;;;;;;3.58;2.00;;;18.80;82.20;;;;;;10791436;33;20055;-70
2023/09/26 05:54:24;;;;;;;4.43;1.55;;;18.90;82.10;;;;;;10792210;33;20078;-70
2023/09/26 06:00:27;;;;;;;1.85;1.60;;;19.00;82.10;;;;;;10790011;33;20020;-71
2023/09/26 06:06:31;;;;;;;2.92;1.60;;;19.10;82.10;;;;;;10791482;33;20024;-71
2023/09/26 06:12:33;;;;;;;4.35;1.58;;;19.10;81.90;;;;;;10791897;33;20066;-70
2023/09/26 06:18:35;;;;;;;1.87;1.15;;;19.10;82.00;;;;;;10787760;33;20374;-70
2023/09/26 06:24:37;;;;;;;3.50;1.77;;;19.20;82.20;;;;;;10789244;33;20062;-71
2023/09/26 06:30:39;;;;;;;3.08;1.80;;;19.20;82.40;;;;;;10791441;33;20385;-71
2023/09/26 06:36:42;;;;;;;6.30;2.12;;;19.30;82.60;;;;;;10774771;33;20016;-71
2023/09/26 06:42:44;;;;;;;2.78;1.75;;;19.30;82.70;;;;;;10789808;33;20082;-71
2023/09/26 06:48:47;;;;;;;1.60;1.27;;;19.40;82.70;;;;;;10791825;27;20414;-70
2023/09/26 06:54:50;;;;;;;1.95;1.40;;;19.50;82.50;;;;;;10789667;32;20342;-70
2023/09/26 07:00:53;;;;;;;3.83;1.90;;;19.70;82.20;;;;;;10791427;33;20436;-70
2023/09/26 07:06:55;;;;;;;4.90;2.10;;;19.80;81.70;;;;;;10790151;33;20051;-70
2023/09/26 07:12:57;;;;;;;3.55;2.03;;;19.80;81.30;;;;;;10789352;33;20024;-70
2023/09/26 07:18:59;;;;;;;2.70;1.90;;;19.90;81.00;;;;;;10788178;33;20016;-70
2023/09/26 07:25:03;;;;;;;2.70;1.37;;;20.10;80.90;;;;;;10788108;33;20047;-71
2023/09/26 07:31:08;;;;;;;2.97;1.62;;;20.20;81.00;;;;;;10786894;33;20055;-70
2023/09/26 07:37:11;;;;;;;7.25;1.92;;;20.30;80.80;;;;;;10785672;33;20058;-71
2023/09/26 07:43:13;;;;;;;2.95;1.60;;;20.50;80.80;;;;;;10789837;33;20028;-72
2023/09/26 07:49:15;;;;;;;1.65;0.90;;;20.60;80.40;;;;;;10904872;32;20052;-72
2023/09/26 07:55:18;;;;;;;5.22;2.35;;;20.70;80.20;;;;;;10989056;32;20069;-71
2023/09/26 08:01:20;;;;;;;5.00;2.95;;;20.90;80.30;;;;;;11019017;32;20418;-72
2023/09/26 08:07:22;;;;;;;3.08;2.17;;;21.00;80.10;;;;;;11018913;32;20026;-71
2023/09/26 08:13:24;;;;;;;4.20;2.33;;;21.20;80.60;;;;;;11019035;32;20054;-71
2023/09/26 08:19:26;;;;;;;22.45;2.95;;;21.30;79.60;;;;;;11017702;32;20056;-71
2023/09/26 08:25:28;;;;;;;4.43;1.98;;;21.50;79.50;;;;;;10981637;32;20054;-71
2023/09/26 08:31:30;;;;;;;4.05;2.17;;;21.60;79.00;;;;;;10869326;32;20062;-71
2023/09/26 08:37:40;;;;;;;5.50;2.97;;;21.80;79.00;;;;;;10881923;32;20028;-72
2023/09/26 08:43:43;;;;;;;3.70;2.17;;;21.90;78.60;;;;;;10907467;32;20342;-71
2023/09/26 08:49:46;;;;;;;4.00;2.62;;;22.00;78.80;;;;;;10939619;32;20441;-72
2023/09/26 08:55:52;;;;;;;4.37;2.65;;;22.20;78.50;;;;;;10941661;32;20056;-69
2023/09/26 09:01:55;;;;;;;4.95;2.87;;;22.30;77.90;;;;;;10920120;32;20056;-68
2023/09/26 09:07:57;;;;;;;6.12;4.82;;;22.50;78.20;;;;;;10830954;33;20424;-70
2023/09/26 09:13:59;;;;;;;17.15;4.85;;;22.60;77.70;;;;;;10829929;33;20042;-71
2023/09/26 09:20:01;;;;;;;6.28;3.62;;;22.80;77.50;;;;;;10829961;33;20028;-70
2023/09/26 09:26:11;;;;;;;6.10;3.83;;;22.80;76.60;;;;;;10826138;33;20368;-70
2023/09/26 09:32:13;;;;;;;12.90;4.55;;;23.00;75.60;;;;;;10799726;33;20410;-69
2023/09/26 09:38:17;;;;;;;5.03;2.95;;;23.10;76.10;;;;;;10829369;33;20024;-70
2023/09/26 09:44:19;;;;;;;5.95;4.05;;;23.30;75.10;;;;;;10815573;33;20035;-71
2023/09/26 09:50:22;;;;;;;6.53;3.35;;;23.40;75.20;;;;;;10816148;33;20362;-69
2023/09/26 09:56:33;;;;;;;6.62;3.40;;;23.50;75.20;;;;;;10827987;33;20067;-70
2023/09/26 10:02:36;;;;;;;6.72;4.00;;;23.70;74.50;;;;;;10829426;32;20035;-69
2023/09/26 10:08:40;;;;;;;9.23;3.15;;;23.80;74.50;;;;;;10828450;33;20019;-71
2023/09/26 10:14:42;;;;;;;6.62;4.65;;;23.90;74.10;;;;;;10828275;33;20055;-69
2023/09/26 10:20:47;;;;;;;8.40;4.93;;;24.10;72.70;;;;;;10824981;33;20063;-70
2023/09/26 10:26:50;;;;;;;4.68;3.30;;;24.20;71.30;;;;;;10826453;33;20390;-70
2023/09/26 10:32:54;;;;;;;5.37;3.05;;;24.30;70.60;;;;;;10827741;33;20402;-68
2023/09/26 10:39:00;;;;;;;6.57;2.83;;;24.40;70.40;;;;;;10827441;33;20020;-69
2023/09/26 10:45:04;;;;;;;10.07;3.50;;;24.60;69.50;;;;;;10827732;33;20020;-70
2023/09/26 10:51:07;;;;;;;5.00;3.05;;;24.80;68.60;;;;;;10814404;33;20369;-71
2023/09/26 10:57:18;;;;;;;6.03;2.97;;;25.00;67.50;;;;;;10827846;33;20058;-70
2023/09/26 11:03:20;;;;;;;4.32;2.60;;;25.20;66.80;;;;;;10812022;33;20058;-70
2023/09/26 11:09:23;;;;;;;11.52;3.85;;;25.40;66.50;;;;;;10826798;33;20043;-70
2023/09/26 11:15:26;;;;;;;7.75;4.03;;;25.80;66.00;;;;;;10825294;32;20047;-72
2023/09/26 11:21:29;;;;;;;4.40;2.85;;;25.90;66.40;;;;;;10826473;33;20357;-71
2023/09/26 11:27:31;;;;;;;14.32;3.35;;;26.10;65.70;;;;;;10826812;33;20016;-71
2023/09/26 11:33:34;;;;;;;6.30;2.92;;;26.20;65.70;;;;;;10826052;33;20024;-71
2023/09/26 11:39:37;;;;;;;6.03;3.55;;;26.30;65.70;;;;;;10826354;33;20047;-72
2023/09/26 11:45:39;;;;;;;6.82;3.55;;;26.40;65.30;;;;;;10851954;32;20039;-71
2023/09/26 11:51:42;;;;;;;10.88;3.20;;;26.40;64.80;;;;;;10850645;32;20060;-72
2023/09/26 11:57:45;;;;;;;4.82;2.72;;;26.40;66.00;;;;;;10847648;32;20086;-72
2023/09/26 12:03:47;;;;;;;6.47;2.80;;;26.40;65.20;;;;;;10848205;32;20038;-71
2023/09/26 12:09:50;;;;;;;5.68;3.30;;;26.40;64.70;;;;;;10862788;32;20054;-72
2023/09/26 12:15:52;;;;;;;7.12;3.10;;;26.50;64.10;;;;;;10823413;32;20047;-72
2023/09/26 12:21:54;;;;;;;10.27;3.62;;;26.50;63.80;;;;;;10862619;32;20057;-71
2023/09/26 12:27:56;;;;;;;8.38;2.78;;;26.40;64.30;;;;;;10859484;32;20463;-71
2023/09/26 12:34:02;;;;;;;12.27;3.90;;;26.30;64.10;;;;;;10850091;32;20027;-76
2023/09/26 12:40:08;;;;;;;8.43;3.40;;;26.30;64.40;;;;;;10824310;33;20066;-76
2023/09/26 12:46:11;;;;;;;8.90;3.73;;;26.30;63.70;;;;;;10819319;32;20025;-74
2023/09/26 12:52:14;;;;;;;9.70;3.95;;;26.30;63.10;;;;;;10785912;33;20032;-75
2023/09/26 12:58:17;;;;;;;6.28;3.95;;;26.30;62.60;;;;;;10787636;33;20009;-74
2023/09/26 13:04:19;;;;;;;9.98;3.95;;;26.30;62.80;;;;;;10786795;33;20016;-75
2023/09/26 13:10:21;;;;;;;5.10;3.10;;;26.30;63.70;;;;;;10786356;33;20012;-76
2023/09/26 13:16:23;;;;;;;10.05;3.08;;;26.30;64.00;;;;;;10786372;33;20051;-75
2023/09/26 13:22:26;;;;;;;7.43;3.28;;;26.30;63.30;;;;;;10786779;33;20012;-73
2023/09/26 13:28:28;;;;;;;7.20;3.25;;;26.30;63.10;;;;;;10784500;33;20024;-72
2023/09/26 13:34:30;;;;;;;9.52;4.00;;;26.40;63.10;;;;;;10787281;33;20039;-71
2023/09/26 13:40:32;;;;;;;4.10;2.87;;;26.40;63.10;;;;;;10792270;33;20350;-71
2023/09/26 13:46:35;;;;;;;6.78;3.15;;;26.40;64.50;;;;;;10792471;32;20446;-70
2023/09/26 13:52:37;;;;;;;6.20;3.03;;;26.50;64.90;;;;;;10792490;33;20016;-71
2023/09/26 13:58:39;;;;;;;6.70;3.17;;;26.40;64.10;;;;;;10792378;33;20046;-72
2023/09/26 14:04:44;;;;;;;5.10;2.90;;;26.40;63.30;;;;;;10792306;33;20047;-70
2023/09/26 14:10:46;;;;;;;4.85;2.60;;;26.60;63.90;;;;;;10791375;33;20020;-70
2023/09/26 14:16:49;;;;;;;7.28;2.90;;;26.60;63.60;;;;;;10782802;33;20032;-71
2023/09/26 14:22:51;;;;;;;4.68;2.62;;;26.70;63.40;;;;;;10755317;33;20043;-72
2023/09/26 14:28:58;;;;;;;6.03;3.47;;;26.70;62.90;;;;;;10755134;33;20284;-67
2023/09/26 14:35:00;;;;;;;5.05;3.30;;;26.80;61.80;;;;;;10754492;33;20047;-70
2023/09/26 14:41:03;;;;;;;4.28;2.35;;;26.80;61.60;;;;;;10755081;33;20059;-69
2023/09/26 14:47:05;;;;;;;5.95;3.50;;;27.00;61.60;;;;;;10764831;27;20036;-69
2023/09/26 14:53:07;;;;;;;4.25;2.25;;;27.00;61.20;;;;;;10791172;33;20036;-70
2023/09/26 14:59:10;;;;;;;4.18;2.55;;;27.00;60.50;;;;;;10790426;33;20036;-70
2023/09/26 15:05:12;;;;;;;5.25;2.95;;;27.10;60.30;;;;;;10791463;33;20047;-69
2023/09/26 15:11:14;;;;;;;13.65;3.53;;;27.20;60.20;;;;;;10790028;33;20101;-69
2023/09/26 15:17:16;;;;;;;8.95;3.67;;;27.30;60.80;;;;;;10790375;33;20405;-71
2023/09/26 15:23:18;;;;;;;7.15;3.67;;;27.30;60.20;;;;;;10788519;33;20032;-70
2023/09/26 15:29:21;;;;;;;8.93;3.20;;;27.30;59.90;;;;;;10789486;33;20025;-70
2023/09/26 15:35:23;;;;;;;9.48;3.42;;;27.80;59.80;;;;;;10790652;33;20028;-69
2023/09/26 15:41:25;;;;;;;6.20;2.55;;;28.90;57.50;;;;;;10789969;33;20052;-70
2023/09/26 15:47:27;;;;;;;3.70;2.25;;;29.60;55.80;;;;;;10796479;33;20028;-70
2023/09/26 15:53:30;;;;;;;6.15;2.67;;;30.00;55.00;;;;;;10813089;32;20040;-70
2023/09/26 15:59:32;;;;;;;11.25;3.35;;;29.30;56.10;;;;;;10812422;32;20023;-70
2023/09/26 16:05:34;;;;;;;5.87;2.62;;;28.60;57.50;;;;;;10825907;33;20016;-70
2023/09/26 16:11:36;;;;;;;3.10;2.17;;;28.30;58.30;;;;;;10826230;33;20040;-70
2023/09/26 16:17:38;;;;;;;5.15;2.67;;;28.20;58.40;;;;;;10825719;33;20390;-70
2023/09/26 16:23:40;;;;;;;4.97;2.33;;;29.00;57.40;;;;;;10825503;33;20326;-69
2023/09/26 16:29:43;;;;;;;3.80;2.37;;;29.00;57.20;;;;;;10825277;33;20012;-70
2023/09/26 16:35:45;;;;;;;4.43;2.35;;;28.10;58.90;;;;;;10824199;33;20410;-69
2023/09/26 16:41:47;;;;;;;5.32;2.62;;;27.40;60.20;;;;;;10825594;33;20322;-70
2023/09/26 16:47:51;;;;;;;7.90;2.95;;;26.90;61.20;;;;;;10822989;33;20058;-69
2023/09/26 16:53:55;;;;;;;3.72;2.55;;;26.60;61.80;;;;;;11006309;32;20442;-70
2023/09/26 16:59:58;;;;;;;4.37;2.53;;;26.30;62.30;;;;;;10956572;32;20028;-69
2023/09/26 17:06:07;;;;;;;4.57;2.72;;;26.00;62.80;;;;;;10811429;33;20413;-69
2023/09/26 17:12:10;;;;;;;9.52;2.85;;;25.80;63.30;;;;;;10825811;32;20028;-69
2023/09/26 17:18:12;;;;;;;3.85;2.08;;;25.60;63.50;;;;;;10830589;33;20020;-69
2023/09/26 17:24:14;;;;;;;10.48;3.37;;;25.30;63.90;;;;;;10830585;33;20058;-70
2023/09/26 17:30:17;;;;;;;3.83;2.12;;;25.30;64.10;;;;;;10830301;33;20046;-70
2023/09/26 17:36:19;;;;;;;10.23;2.62;;;25.10;64.40;;;;;;10829493;33;20020;-70
2023/09/26 17:42:21;;;;;;;4.90;2.80;;;25.00;64.60;;;;;;10827231;33;20031;-70
2023/09/26 17:48:23;;;;;;;4.03;2.22;;;24.80;64.80;;;;;;10829525;33;20047;-70
2023/09/26 17:54:26;;;;;;;4.70;2.40;;;24.60;65.40;;;;;;10828843;33;20056;-70
2023/09/26 18:00:28;;;;;;;9.82;3.92;;;24.40;66.10;;;;;;10828653;33;20020;-70
2023/09/26 18:06:30;;;;;;;4.53;2.75;;;24.30;66.90;;;;;;10828513;33;20020;-70
2023/09/26 18:12:32;;;;;;;5.75;2.92;;;24.20;67.70;;;;;;10801932;33;20178;-70
2023/09/26 18:18:34;;;;;;;3.20;2.10;;;24.10;68.20;;;;;;10783230;33;20036;-70
2023/09/26 18:24:36;;;;;;;5.12;2.62;;;24.00;68.40;;;;;;10825319;32;20050;-70
2023/09/26 18:30:38;;;;;;;7.25;3.25;;;24.00;68.30;;;;;;10828762;33;20024;-70
2023/09/26 18:36:41;;;;;;;4.72;2.50;;;23.90;68.60;;;;;;10814249;33;20036;-70
2023/09/26 18:42:43;;;;;;;6.40;2.35;;;23.80;69.00;;;;;;10825894;33;20067;-71
2023/09/26 18:48:45;;;;;;;7.70;2.03;;;23.70;69.80;;;;;;10827611;33;20035;-70
2023/09/26 18:54:47;;;;;;;6.20;2.50;;;23.70;69.70;;;;;;10828255;33;20020;-70
2023/09/26 19:00:49;;;;;;;5.65;3.10;;;23.60;70.30;;;;;;10828199;33;20432;-70
2023/09/26 19:06:51;;;;;;;4.72;2.95;;;23.60;70.60;;;;;;10826884;33;20024;-70
2023/09/26 19:12:54;;;;;;;5.80;2.47;;;23.50;71.20;;;;;;10827325;33;20416;-70
2023/09/26 19:18:56;;;;;;;4.12;2.75;;;23.40;71.40;;;;;;10826608;33;20077;-70
2023/09/26 19:25:00;;;;;;;5.12;2.55;;;23.40;71.70;;;;;;10812650;32;20063;-70
2023/09/26 19:31:02;;;;;;;7.68;3.08;;;23.30;72.40;;;;;;10827197;33;20020;-70
2023/09/26 19:37:04;;;;;;;4.45;2.65;;;23.20;72.90;;;;;;10809094;32;20027;-70
2023/09/26 19:43:07;;;;;;;4.82;3.08;;;23.20;73.10;;;;;;10789409;33;20338;-70
2023/09/26 19:49:09;;;;;;;6.70;3.50;;;23.20;73.50;;;;;;10795918;33;20162;-70
2023/09/26 19:55:12;;;;;;;10.38;3.15;;;23.10;73.50;;;;;;10784356;33;20398;-70
2023/09/26 20:01:20;;;;;;;4.60;2.92;;;23.10;73.40;;;;;;10796658;33;20424;-70
2023/09/26 20:07:22;;;;;;;5.70;3.08;;;23.00;73.60;;;;;;10818933;32;20028;-70
2023/09/26 20:13:25;;;;;;;3.28;2.40;;;23.00;74.10;;;;;;10809318;33;20032;-70
2023/09/26 20:19:27;;;;;;;3.83;2.45;;;23.00;74.00;;;;;;10801157;33;20350;-70
2023/09/26 20:25:29;;;;;;;4.68;2.58;;;22.90;73.90;;;;;;10793451;33;20350;-70
2023/09/26 20:31:32;;;;;;;5.55;3.12;;;22.80;74.60;;;;;;10779662;33;20066;-70
2023/09/26 20:37:34;;;;;;;6.75;3.05;;;22.80;74.50;;;;;;10783336;33;20055;-70
2023/09/26 20:43:37;;;;;;;5.68;2.90;;;22.80;74.60;;;;;;10793056;33;20060;-70
2023/09/26 20:49:40;;;;;;;8.98;3.67;;;22.70;74.80;;;;;;10818007;33;20031;-70
2023/09/26 20:55:42;;;;;;;5.65;3.28;;;22.70;74.60;;;;;;10823244;33;20046;-71
2023/09/26 21:01:44;;;;;;;3.83;2.62;;;22.60;74.80;;;;;;10824215;33;20055;-70
2023/09/26 21:07:47;;;;;;;6.55;2.85;;;22.60;75.40;;;;;;10810336;33;20067;-70
2023/09/26 21:13:49;;;;;;;6.32;2.83;;;22.60;75.40;;;;;;10823708;33;20401;-71
2023/09/26 21:19:51;;;;;;;3.72;2.17;;;22.70;75.60;;;;;;10824231;33;20020;-71
2023/09/26 21:25:53;;;;;;;3.78;2.67;;;22.60;75.50;;;;;;10824121;33;20322;-70
2023/09/26 21:31:56;;;;;;;4.00;2.37;;;22.60;75.60;;;;;;10823004;33;20062;-70
2023/09/26 21:37:58;;;;;;;3.85;1.98;;;22.50;75.90;;;;;;10823857;33;20291;-70
2023/09/26 21:44:00;;;;;;;3.72;2.05;;;22.50;76.40;;;;;;10823655;33;20420;-71
2023/09/26 21:50:04;;;;;;;4.20;2.42;;;22.40;76.60;;;;;;10822916;33;20055;-71
2023/09/26 21:56:10;;;;;;;7.53;3.35;;;22.40;77.20;;;;;;10821796;32;20469;-71
2023/09/26 22:02:12;;;;;;;6.95;2.85;;;22.30;77.20;;;;;;10830073;33;20050;-70
2023/09/26 22:08:14;;;;;;;4.78;2.85;;;22.30;77.10;;;;;;10830088;33;20326;-70
2023/09/26 22:14:16;;;;;;;5.05;3.17;;;22.30;76.90;;;;;;10827623;33;20487;-70
2023/09/26 22:20:20;;;;;;;5.80;3.22;;;22.30;76.90;;;;;;10829782;33;20287;-70
2023/09/26 22:26:22;;;;;;;9.18;3.05;;;22.30;77.00;;;;;;10829539;33;20024;-70
2023/09/26 22:32:24;;;;;;;4.07;3.00;;;22.20;77.00;;;;;;10829376;33;20050;-70
2023/09/26 22:38:27;;;;;;;3.87;2.47;;;22.20;77.10;;;;;;10827988;33;20060;-70
2023/09/26 22:44:30;;;;;;;4.80;2.83;;;22.20;77.20;;;;;;10827904;33;20025;-71
2023/09/26 22:50:33;;;;;;;6.53;3.13;;;22.10;77.20;;;;;;10579795;27;8284944;-72
2023/09/26 22:56:35;;;;;;;3.28;2.37;;;22.10;77.30;;;;;;10827331;33;20008;-70
2023/09/26 23:02:37;;;;;;;3.53;2.42;;;22.00;77.60;;;;;;10827832;33;20417;-70
2023/09/26 23:08:39;;;;;;;3.45;2.45;;;22.00;77.70;;;;;;10827047;32;20021;-71
2023/09/26 23:14:41;;;;;;;4.82;3.05;;;22.00;77.70;;;;;;10813632;33;20024;-70
2023/09/26 23:20:43;;;;;;;5.05;1.98;;;21.90;77.80;;;;;;10826702;33;20047;-71
2023/09/26 23:26:46;;;;;;;3.70;2.72;;;22.00;77.80;;;;;;10826584;33;20034;-70
2023/09/26 23:32:49;;;;;;;3.55;2.35;;;21.90;77.80;;;;;;10826243;33;20024;-72
2023/09/26 23:39:11;;;;;;;2.62;1.98;;;21.80;77.70;;;;;;10802648;33;20043;-70
2023/09/26 23:45:13;;;;;;;3.78;2.37;;;21.80;78.10;;;;;;10813427;32;20035;-72
2023/09/26 23:51:17;;;;;;;4.60;2.65;;;21.80;78.20;;;;;;10825674;33;20015;-70
2023/09/26 23:57:19;;;;;;;3.17;2.85;;;21.80;78.40;;;;;;10827077;33;20047;-70
